createdAt,value
2018-07-26T00:00:23.684Z,6.77
2018-07-26T00:02:52.092Z,6.97
2018-07-26T00:05:20.531Z,6.60
2018-07-26T00:07:48.953Z,6.47
2018-07-26T00:10:17.409Z,6.97
2018-07-26T00:12:46.465Z,7.00
2018-07-26T00:15:14.900Z,6.77
2018-07-26T00:17:43.352Z,6.60
2018-07-26T00:20:11.809Z,6.87
2018-07-26T00:22:40.210Z,6.70
2018-07-26T00:25:08.599Z,7.30
2018-07-26T00:27:37.073Z,6.77
2018-07-26T00:30:06.044Z,6.37
2018-07-26T00:32:34.504Z,6.70
2018-07-26T00:35:02.912Z,7.60
2018-07-26T00:37:31.395Z,6.67
2018-07-26T00:39:59.851Z,6.90
2018-07-26T00:42:28.326Z,6.80
2018-07-26T00:44:56.750Z,7.27
2018-07-26T00:47:25.158Z,7.87
2018-07-26T00:49:53.544Z,7.30
2018-07-26T00:52:21.911Z,7.67
2018-07-26T00:54:50.304Z,7.30
2018-07-26T00:57:19.693Z,6.77
2018-07-26T00:59:48.083Z,6.80
2018-07-26T01:02:16.516Z,7.27
2018-07-26T01:04:44.875Z,6.80
2018-07-26T01:07:13.476Z,7.50
2018-07-26T01:09:41.894Z,6.67
2018-07-26T01:12:10.344Z,7.77
2018-07-26T01:14:38.920Z,7.63
2018-07-26T01:17:07.417Z,7.50
2018-07-26T01:19:36.078Z,7.47
2018-07-26T01:22:04.690Z,7.90
2018-07-26T01:24:33.163Z,7.20
2018-07-26T01:27:02.642Z,7.20
2018-07-26T01:29:31.088Z,7.00
2018-07-26T01:31:59.540Z,7.23
2018-07-26T01:34:28.006Z,7.27
2018-07-26T01:36:56.436Z,7.43
2018-07-26T01:39:24.848Z,7.30
2018-07-26T01:41:53.660Z,7.10
2018-07-26T01:44:23.737Z,7.47
2018-07-26T01:46:52.224Z,7.37
2018-07-26T01:49:20.687Z,7.70
2018-07-26T01:51:49.189Z,7.90
2018-07-26T01:54:17.732Z,8.33
2018-07-26T01:56:46.255Z,8.83
2018-07-26T01:59:14.730Z,8.37
2018-07-26T02:01:43.114Z,7.23
2018-07-26T02:04:11.531Z,7.57
2018-07-26T02:06:40.000Z,7.90
2018-07-26T02:09:09.997Z,7.27
2018-07-26T02:11:38.552Z,7.90
2018-07-26T02:14:11.160Z,7.57
2018-07-26T02:16:39.744Z,7.93
2018-07-26T02:19:08.348Z,8.20
2018-07-26T02:21:36.824Z,8.30
2018-07-26T02:24:05.280Z,8.77
2018-07-26T02:26:33.718Z,8.57
2018-07-26T02:29:02.120Z,8.70
2018-07-26T02:31:30.608Z,9.00
2018-07-26T02:33:59.063Z,8.03
2018-07-26T02:36:27.770Z,9.30
2018-07-26T02:38:56.144Z,8.33
2018-07-26T02:41:24.538Z,8.57
2018-07-26T02:43:52.980Z,8.20
2018-07-26T02:46:21.349Z,8.73
2018-07-26T02:48:49.842Z,7.90
2018-07-26T02:51:18.253Z,8.10
2018-07-26T02:53:46.917Z,7.90
2018-07-26T02:56:15.340Z,9.33
2018-07-26T02:58:43.735Z,8.87
2018-07-26T03:01:12.172Z,9.10
2018-07-26T03:03:40.764Z,9.40
2018-07-26T03:06:09.213Z,9.57
2018-07-26T03:08:37.677Z,7.80
2018-07-26T03:11:06.105Z,8.30
2018-07-26T03:13:34.664Z,8.53
2018-07-26T03:16:03.055Z,8.57
2018-07-26T03:18:31.487Z,10.20
2018-07-26T03:21:00.019Z,9.07
2018-07-26T03:23:28.370Z,8.53
2018-07-26T03:25:57.671Z,9.10
2018-07-26T03:28:26.143Z,8.70
2018-07-26T03:30:54.532Z,9.70
2018-07-26T03:33:22.943Z,9.87
2018-07-26T03:35:51.398Z,8.53
2018-07-26T03:38:19.813Z,8.80
2018-07-26T03:40:48.256Z,8.03
2018-07-26T03:43:16.696Z,9.43
2018-07-26T03:45:44.094Z,8.00
2018-07-26T03:48:12.505Z,9.10
2018-07-26T03:50:40.994Z,9.77
2018-07-26T03:53:09.458Z,9.90
2018-07-26T03:55:37.872Z,9.30
2018-07-26T03:58:06.255Z,9.27
2018-07-26T04:00:34.760Z,9.13
2018-07-26T04:03:03.182Z,9.80
2018-07-26T04:05:31.640Z,9.10
2018-07-26T04:08:00.109Z,8.83
2018-07-26T04:10:28.588Z,9.53
2018-07-26T04:12:57.094Z,9.03
2018-07-26T04:15:25.535Z,9.63
2018-07-26T04:17:58.379Z,10.10
2018-07-26T04:20:26.776Z,9.23
2018-07-26T04:22:55.256Z,10.37
2018-07-26T04:25:23.688Z,9.67
2018-07-26T04:27:52.198Z,10.10
2018-07-26T04:30:20.614Z,10.03
2018-07-26T04:32:49.010Z,9.63
2018-07-26T04:35:17.520Z,11.33
2018-07-26T04:37:45.981Z,10.20
2018-07-26T04:40:14.424Z,9.33
2018-07-26T04:42:42.916Z,9.83
2018-07-26T04:45:11.331Z,10.77
2018-07-26T04:47:39.789Z,10.03
2018-07-26T04:50:08.232Z,10.37
2018-07-26T04:52:36.673Z,10.87
2018-07-26T04:55:05.114Z,10.87
2018-07-26T04:57:33.503Z,9.90
2018-07-26T05:00:01.894Z,10.27
2018-07-26T05:02:30.312Z,11.10
2018-07-26T05:04:58.823Z,10.70
2018-07-26T05:07:27.216Z,10.50
2018-07-26T05:09:55.646Z,11.23
2018-07-26T05:12:24.046Z,11.10
2018-07-26T05:14:52.468Z,9.97
2018-07-26T05:17:20.928Z,11.23
2018-07-26T05:19:49.409Z,10.07
2018-07-26T05:22:17.848Z,10.97
2018-07-26T05:24:46.324Z,10.73
2018-07-26T05:27:14.802Z,10.97
2018-07-26T05:29:43.201Z,10.33
2018-07-26T05:32:11.597Z,11.83
2018-07-26T05:34:40.112Z,10.97
2018-07-26T05:37:08.583Z,11.17
2018-07-26T05:39:36.978Z,10.23
2018-07-26T05:42:05.465Z,11.27
2018-07-26T05:44:33.925Z,11.17
2018-07-26T05:47:02.340Z,11.20
2018-07-26T05:49:30.750Z,10.70
2018-07-26T05:51:59.184Z,10.53
2018-07-26T05:54:27.648Z,11.00
2018-07-26T05:56:56.044Z,17.10
2018-07-26T05:59:24.508Z,11.70
2018-07-26T06:01:53.073Z,11.03
2018-07-26T06:04:21.544Z,11.00
2018-07-26T06:06:50.009Z,11.40
2018-07-26T06:09:18.440Z,10.20
2018-07-26T06:11:46.900Z,10.80
2018-07-26T06:14:15.474Z,10.77
2018-07-26T06:16:44.647Z,10.83
2018-07-26T06:19:13.073Z,10.90
2018-07-26T06:21:41.529Z,11.13
2018-07-26T06:24:10.003Z,9.63
2018-07-26T06:26:39.064Z,9.90
2018-07-26T06:29:07.518Z,11.23
2018-07-26T06:31:36.373Z,11.50
2018-07-26T06:34:04.948Z,10.50
2018-07-26T06:36:33.412Z,11.30
2018-07-26T06:39:01.953Z,11.40
2018-07-26T06:41:30.419Z,11.43
2018-07-26T06:43:58.889Z,9.93
2018-07-26T06:46:27.356Z,11.43
2018-07-26T06:48:55.792Z,10.70
2018-07-26T06:51:24.282Z,10.97
2018-07-26T06:53:52.754Z,18.27
2018-07-26T06:56:22.144Z,11.20
2018-07-26T06:58:50.572Z,9.53
2018-07-26T07:01:19.013Z,11.33
2018-07-26T07:03:47.565Z,10.13
2018-07-26T07:06:16.586Z,9.90
2018-07-26T07:08:45.121Z,9.20
2018-07-26T07:11:13.755Z,9.50
2018-07-26T07:13:42.224Z,9.53
2018-07-26T07:16:10.813Z,8.60
2018-07-26T07:18:39.241Z,8.70
2018-07-26T07:21:08.861Z,8.80
2018-07-26T07:23:39.237Z,9.03
2018-07-26T07:26:07.731Z,9.17
2018-07-26T07:28:36.160Z,8.10
2018-07-26T07:31:04.685Z,8.67
2018-07-26T07:33:33.138Z,8.23
2018-07-26T07:36:01.655Z,9.93
2018-07-26T07:38:30.124Z,8.63
2018-07-26T07:40:58.559Z,8.17
2018-07-26T07:43:27.134Z,7.50
2018-07-26T07:45:55.611Z,8.47
2018-07-26T07:48:24.032Z,7.87
2018-07-26T07:50:52.454Z,8.20
2018-07-26T07:53:21.005Z,7.13
2018-07-26T07:55:49.521Z,7.07
2018-07-26T07:58:17.959Z,6.80
2018-07-26T08:00:46.399Z,7.00
2018-07-26T08:03:14.897Z,7.57
2018-07-26T08:05:43.375Z,6.70
2018-07-26T08:08:11.909Z,6.17
2018-07-26T08:10:40.325Z,6.43
2018-07-26T08:13:08.823Z,5.23
2018-07-26T08:15:37.286Z,9.83
2018-07-26T08:18:06.500Z,9.73
2018-07-26T08:20:34.960Z,13.80
2018-07-26T08:23:03.443Z,5.67
2018-07-26T08:25:31.866Z,6.67
2018-07-26T08:28:00.352Z,10.47
2018-07-26T08:30:28.921Z,9.63
2018-07-26T08:32:57.429Z,36.57
2018-07-26T08:35:25.862Z,27.53
2018-07-26T08:37:54.355Z,21.13
2018-07-26T08:40:23.379Z,16.30
2018-07-26T08:42:51.968Z,14.63
2018-07-26T08:45:20.548Z,13.77
2018-07-26T08:47:49.022Z,29.60
2018-07-26T08:50:17.487Z,14.00
2018-07-26T08:55:20.635Z,5.30
2018-07-26T08:57:49.074Z,4.00
2018-07-26T09:00:18.550Z,9.57
2018-07-26T09:02:47.814Z,4.60
2018-07-26T09:05:16.740Z,21.60
2018-07-26T09:07:45.813Z,7.30
2018-07-26T09:10:14.951Z,14.00
2018-07-26T09:12:43.393Z,7.60
2018-07-26T09:15:12.197Z,7.53
2018-07-26T09:17:40.624Z,4.53
2018-07-26T09:20:09.081Z,4.27
2018-07-26T09:22:37.469Z,3.90
2018-07-26T09:25:05.925Z,4.10
2018-07-26T09:27:34.357Z,8.87
2018-07-26T09:30:02.828Z,12.33
2018-07-26T09:32:31.261Z,4.83
2018-07-26T09:34:59.700Z,3.80
2018-07-26T09:37:28.142Z,4.83
2018-07-26T09:39:56.548Z,5.43
2018-07-26T09:42:25.039Z,5.17
2018-07-26T09:44:53.569Z,4.10
2018-07-26T09:47:22.011Z,3.60
2018-07-26T09:49:50.572Z,5.60
2018-07-26T09:52:19.014Z,5.47
2018-07-26T09:54:47.448Z,4.30
2018-07-26T09:57:15.886Z,4.83
2018-07-26T09:59:44.295Z,4.10
2018-07-26T10:02:12.808Z,4.70
2018-07-26T10:04:41.273Z,4.90
2018-07-26T10:07:09.741Z,3.70
2018-07-26T10:09:38.136Z,4.10
2018-07-26T10:12:06.584Z,5.40
2018-07-26T10:14:35.017Z,4.43
2018-07-26T10:17:03.417Z,3.90
2018-07-26T10:19:31.920Z,3.97
2018-07-26T10:22:00.344Z,4.10
2018-07-26T10:24:28.791Z,4.03
2018-07-26T10:26:57.210Z,4.43
2018-07-26T10:29:25.648Z,5.23
2018-07-26T10:31:54.151Z,3.70
2018-07-26T10:34:22.533Z,3.70
2018-07-26T10:36:51.085Z,3.43
2018-07-26T10:39:19.553Z,3.57
2018-07-26T10:41:48.027Z,3.50
2018-07-26T10:44:16.487Z,3.40
2018-07-26T10:46:44.878Z,3.53
2018-07-26T10:49:13.266Z,3.77
2018-07-26T10:51:41.714Z,4.47
2018-07-26T10:54:10.162Z,7.70
2018-07-26T10:56:38.652Z,3.40
2018-07-26T10:59:07.043Z,3.80
2018-07-26T11:01:35.769Z,3.83
2018-07-26T11:04:04.272Z,3.87
2018-07-26T11:06:32.753Z,3.83
2018-07-26T11:09:01.164Z,3.60
2018-07-26T11:11:29.550Z,3.70
2018-07-26T11:13:57.980Z,3.30
2018-07-26T11:16:26.455Z,3.77
2018-07-26T11:18:54.971Z,3.70
2018-07-26T11:21:23.368Z,3.80
2018-07-26T11:23:51.851Z,4.30
2018-07-26T11:26:20.303Z,3.77
2018-07-26T11:28:48.795Z,4.03
2018-07-26T11:31:17.275Z,7.40
2018-07-26T11:33:45.723Z,5.40
2018-07-26T11:36:14.366Z,3.90
2018-07-26T11:38:42.864Z,5.90
2018-07-26T11:41:11.344Z,5.10
2018-07-26T11:43:39.798Z,5.10
2018-07-26T11:46:08.282Z,3.60
2018-07-26T11:48:36.735Z,3.50
2018-07-26T11:51:05.216Z,4.33
2018-07-26T11:53:33.691Z,3.57
2018-07-26T11:56:02.132Z,4.00
2018-07-26T11:58:30.619Z,3.60
2018-07-26T12:00:59.035Z,4.10
2018-07-26T12:03:27.461Z,4.00
2018-07-26T12:05:56.607Z,3.23
2018-07-26T12:08:25.006Z,3.57
2018-07-26T12:10:53.464Z,3.10
2018-07-26T12:13:21.919Z,3.80
2018-07-26T12:15:50.307Z,3.83
2018-07-26T12:18:18.799Z,3.90
2018-07-26T12:20:47.260Z,4.60
2018-07-26T12:23:15.736Z,3.07
2018-07-26T12:25:44.221Z,3.27
2018-07-26T12:28:12.667Z,3.17
2018-07-26T12:30:41.607Z,3.70
2018-07-26T12:33:10.017Z,5.00
2018-07-26T12:35:38.453Z,6.07
2018-07-26T12:38:06.844Z,5.03
2018-07-26T12:40:35.335Z,3.53
2018-07-26T12:43:03.785Z,4.80
2018-07-26T12:45:32.347Z,5.07
2018-07-26T12:48:00.833Z,6.30
2018-07-26T12:50:29.270Z,3.93
2018-07-26T12:52:57.747Z,4.30
2018-07-26T12:55:26.205Z,5.63
2018-07-26T12:57:55.128Z,3.83
2018-07-26T13:00:23.572Z,4.10
2018-07-26T13:02:52.056Z,5.07
2018-07-26T13:05:20.505Z,6.90
2018-07-26T13:07:48.933Z,5.00
2018-07-26T13:10:17.351Z,3.90
2018-07-26T13:12:45.817Z,3.83
2018-07-26T13:15:14.284Z,3.90
2018-07-26T13:17:42.755Z,4.37
2018-07-26T13:20:11.205Z,5.00
2018-07-26T13:22:39.640Z,7.40
2018-07-26T13:25:08.118Z,4.17
2018-07-26T13:27:36.582Z,5.03
2018-07-26T13:30:05.689Z,5.40
2018-07-26T13:32:34.190Z,4.03
2018-07-26T13:35:02.657Z,4.00
2018-07-26T13:37:31.090Z,5.20
2018-07-26T13:39:59.717Z,3.60
2018-07-26T13:42:28.100Z,3.70
2018-07-26T13:44:56.534Z,3.10
2018-07-26T13:47:25.057Z,4.33
2018-07-26T13:49:53.581Z,3.70
2018-07-26T13:52:22.045Z,3.87
2018-07-26T13:54:50.425Z,5.57
2018-07-26T13:57:18.903Z,4.10
2018-07-26T13:59:47.335Z,4.07
2018-07-26T14:02:15.757Z,6.20
2018-07-26T14:04:44.163Z,4.73
2018-07-26T14:07:12.657Z,3.73
2018-07-26T14:09:41.096Z,4.50
2018-07-26T14:12:09.527Z,4.73
2018-07-26T14:14:37.959Z,7.70
2018-07-26T14:17:06.429Z,5.20
2018-07-26T14:19:34.866Z,5.40
2018-07-26T14:22:03.399Z,3.33
2018-07-26T14:24:31.935Z,2.90
2018-07-26T14:27:00.369Z,3.93
2018-07-26T14:29:28.872Z,4.17
2018-07-26T14:31:57.354Z,3.50
2018-07-26T14:34:25.977Z,3.27
2018-07-26T14:36:54.421Z,3.23
2018-07-26T14:39:23.080Z,2.77
2018-07-26T14:41:51.597Z,2.67
2018-07-26T14:44:20.016Z,5.17
2018-07-26T14:46:48.423Z,5.10
2018-07-26T14:49:16.833Z,2.90
2018-07-26T14:51:45.353Z,2.90
2018-07-26T14:54:13.757Z,3.07
2018-07-26T14:56:42.242Z,4.03
2018-07-26T14:59:10.727Z,6.10
2018-07-26T15:01:39.149Z,5.23
2018-07-26T15:04:08.360Z,4.90
2018-07-26T15:06:36.748Z,3.10
2018-07-26T15:09:08.080Z,2.93
2018-07-26T15:11:36.634Z,4.17
2018-07-26T15:14:05.074Z,3.47
2018-07-26T15:16:33.557Z,4.03
2018-07-26T15:19:02.086Z,4.30
2018-07-26T15:21:30.538Z,14.97
2018-07-26T15:23:59.002Z,3.70
2018-07-26T15:26:27.409Z,3.80
2018-07-26T15:28:55.828Z,3.33
2018-07-26T15:31:24.284Z,3.20
2018-07-26T15:33:52.736Z,3.90
2018-07-26T15:36:21.156Z,3.90
2018-07-26T15:38:49.653Z,3.00
2018-07-26T15:41:18.085Z,4.40
2018-07-26T15:43:46.552Z,3.63
2018-07-26T15:46:14.977Z,4.30
2018-07-26T15:48:43.355Z,5.53
2018-07-26T15:51:11.937Z,4.50
2018-07-26T15:53:40.496Z,3.60
2018-07-26T15:56:08.941Z,2.93
2018-07-26T15:58:37.488Z,3.30
2018-07-26T16:01:06.040Z,3.17
2018-07-26T16:03:34.730Z,3.30
2018-07-26T16:06:03.117Z,3.70
2018-07-26T16:08:31.558Z,3.73
2018-07-26T16:10:59.965Z,3.60
2018-07-26T16:13:28.430Z,3.60
2018-07-26T16:15:56.875Z,4.50
2018-07-26T16:18:25.293Z,4.47
2018-07-26T16:20:53.743Z,4.23
2018-07-26T16:23:22.145Z,4.13
2018-07-26T16:25:50.618Z,4.50
2018-07-26T16:28:19.071Z,4.53
2018-07-26T16:30:47.496Z,4.83
2018-07-26T16:33:16.000Z,4.77
2018-07-26T16:35:44.400Z,4.50
2018-07-26T16:38:12.881Z,4.27
2018-07-26T16:40:41.287Z,4.30
2018-07-26T16:43:09.812Z,4.47
2018-07-26T16:45:38.335Z,4.53
2018-07-26T16:48:06.799Z,3.70
2018-07-26T16:50:35.225Z,4.43
2018-07-26T16:53:03.783Z,7.67
2018-07-26T16:55:32.189Z,5.60
2018-07-26T16:58:00.660Z,4.80
2018-07-26T17:00:29.099Z,4.60
2018-07-26T17:02:57.531Z,4.47
2018-07-26T17:05:26.015Z,4.73
2018-07-26T17:07:54.567Z,4.67
2018-07-26T17:10:22.977Z,4.00
2018-07-26T17:12:51.433Z,3.97
2018-07-26T17:15:19.878Z,4.10
2018-07-26T17:17:50.069Z,4.57
2018-07-26T17:20:18.547Z,4.50
2018-07-26T17:22:47.070Z,4.50
2018-07-26T17:25:17.347Z,4.47
2018-07-26T17:27:45.844Z,4.40
2018-07-26T17:30:14.328Z,3.90
2018-07-26T17:32:42.765Z,3.80
2018-07-26T17:35:11.223Z,4.60
2018-07-26T17:37:39.651Z,4.60
2018-07-26T17:40:08.144Z,4.03
2018-07-26T17:42:36.650Z,4.77
2018-07-26T17:45:07.630Z,4.47
2018-07-26T17:47:36.104Z,4.00
2018-07-26T17:50:05.594Z,4.70
2018-07-26T17:52:34.419Z,4.50
2018-07-26T17:55:03.192Z,4.60
2018-07-26T17:57:31.627Z,4.30
2018-07-26T18:00:00.079Z,5.20
2018-07-26T18:02:28.559Z,4.93
2018-07-26T18:04:57.028Z,4.93
2018-07-26T18:07:25.460Z,4.53
2018-07-26T18:09:53.930Z,4.60
2018-07-26T18:12:22.373Z,4.30
2018-07-26T18:14:50.793Z,4.80
2018-07-26T18:17:19.247Z,4.83
2018-07-26T18:19:47.694Z,4.17
2018-07-26T18:22:16.139Z,4.27
2018-07-26T18:24:44.561Z,3.70
2018-07-26T18:27:12.986Z,4.97
2018-07-26T18:29:41.419Z,4.70
2018-07-26T18:32:09.914Z,7.27
2018-07-26T18:34:38.352Z,4.73
2018-07-26T18:37:06.895Z,4.40
2018-07-26T18:39:35.400Z,4.67
2018-07-26T18:42:03.861Z,4.10
2018-07-26T18:44:32.233Z,4.00
2018-07-26T18:47:00.660Z,4.53
2018-07-26T18:49:29.160Z,4.30
2018-07-26T18:51:57.541Z,4.43
2018-07-26T18:54:25.965Z,4.80
2018-07-26T18:56:54.469Z,4.37
2018-07-26T18:59:23.617Z,4.20
2018-07-26T19:01:52.041Z,4.43
2018-07-26T19:04:20.516Z,4.50
2018-07-26T19:06:49.001Z,5.23
2018-07-26T19:09:17.478Z,5.00
2018-07-26T19:11:45.962Z,5.57
2018-07-26T19:14:14.416Z,5.07
2018-07-26T19:16:42.924Z,5.90
2018-07-26T19:19:11.394Z,3.93
2018-07-26T19:21:39.868Z,4.50
2018-07-26T19:24:08.377Z,4.90
2018-07-26T19:26:36.792Z,5.30
2018-07-26T19:29:05.672Z,4.30
2018-07-26T19:31:34.207Z,5.17
2018-07-26T19:34:02.596Z,4.60
2018-07-26T19:36:31.104Z,17.90
2018-07-26T19:38:59.642Z,7.17
2018-07-26T19:41:29.024Z,5.47
2018-07-26T19:43:57.502Z,5.73
2018-07-26T19:46:26.016Z,5.10
2018-07-26T19:48:54.433Z,4.40
2018-07-26T19:51:22.906Z,5.30
2018-07-26T19:53:51.381Z,5.83
2018-07-26T19:56:19.802Z,5.43
2018-07-26T19:58:48.221Z,4.80
2018-07-26T20:01:16.683Z,4.80
2018-07-26T20:03:45.704Z,5.20
2018-07-26T20:06:14.083Z,7.77
2018-07-26T20:08:42.483Z,4.70
2018-07-26T20:11:11.007Z,4.40
2018-07-26T20:13:39.405Z,4.00
2018-07-26T20:16:07.909Z,5.30
2018-07-26T20:18:36.472Z,4.83
2018-07-26T20:21:04.900Z,5.00
2018-07-26T20:23:33.377Z,4.83
2018-07-26T20:26:01.853Z,3.97
2018-07-26T20:28:30.309Z,4.30
2018-07-26T20:30:58.733Z,4.27
2018-07-26T20:33:27.174Z,4.20
2018-07-26T20:35:55.588Z,4.53
2018-07-26T20:38:23.981Z,3.83
2018-07-26T20:40:52.400Z,4.80
2018-07-26T20:43:20.856Z,4.67
2018-07-26T20:45:49.329Z,4.10
2018-07-26T20:48:17.780Z,4.50
2018-07-26T20:50:46.239Z,4.10
2018-07-26T20:53:14.646Z,3.83
2018-07-26T20:55:43.064Z,3.67
2018-07-26T20:58:12.156Z,4.70
2018-07-26T21:00:42.321Z,5.03
2018-07-26T21:03:13.829Z,4.47
2018-07-26T21:05:42.734Z,7.63
2018-07-26T21:08:12.688Z,14.20
2018-07-26T21:10:41.397Z,37.17
2018-07-26T21:13:10.933Z,22.63
2018-07-26T21:15:41.531Z,11.10
2018-07-26T21:18:10.441Z,3.93
2018-07-26T21:20:40.408Z,4.53
2018-07-26T21:23:09.694Z,6.17
2018-07-26T21:25:38.967Z,5.97
2018-07-26T21:28:07.982Z,3.80
2018-07-26T21:30:36.784Z,6.77
2018-07-26T21:33:06.989Z,5.63
2018-07-26T21:35:35.516Z,27.73
2018-07-26T21:38:03.930Z,11.50
2018-07-26T21:40:32.357Z,6.13
2018-07-26T21:43:01.742Z,9.07
2018-07-26T21:45:30.155Z,7.50
2018-07-26T21:47:58.586Z,4.47
2018-07-26T21:50:26.980Z,5.27
2018-07-26T21:52:55.414Z,4.27
2018-07-26T21:55:24.246Z,4.43
2018-07-26T21:57:52.652Z,3.47
2018-07-26T22:00:21.036Z,3.40
2018-07-26T22:02:49.497Z,2.97
2018-07-26T22:05:17.948Z,3.20
2018-07-26T22:07:46.369Z,3.20
2018-07-26T22:10:14.876Z,3.50
2018-07-26T22:12:44.183Z,3.60
2018-07-26T22:15:13.508Z,3.53
2018-07-26T22:17:41.872Z,3.87
2018-07-26T22:20:10.402Z,3.30
2018-07-26T22:22:38.781Z,5.60
2018-07-26T22:25:07.238Z,4.00
2018-07-26T22:27:35.617Z,4.60
2018-07-26T22:30:04.420Z,4.30
2018-07-26T22:32:32.948Z,4.20
2018-07-26T22:35:01.290Z,4.87
2018-07-26T22:37:29.722Z,4.10
2018-07-26T22:39:58.131Z,3.80
2018-07-26T22:42:26.575Z,5.03
2018-07-26T22:44:55.049Z,4.27
2018-07-26T22:47:23.479Z,4.53
2018-07-26T22:49:51.940Z,8.20
2018-07-26T22:52:20.374Z,5.20
2018-07-26T22:54:48.776Z,4.73
2018-07-26T22:57:17.228Z,8.80
2018-07-26T22:59:45.653Z,6.80
2018-07-26T23:02:14.190Z,6.03
2018-07-26T23:04:42.601Z,10.30
2018-07-26T23:07:11.064Z,13.70
2018-07-26T23:09:39.479Z,5.70
2018-07-26T23:12:07.907Z,21.63
2018-07-26T23:14:36.293Z,14.80
2018-07-26T23:17:04.723Z,8.23
2018-07-26T23:19:33.152Z,5.80
2018-07-26T23:22:01.640Z,6.40
2018-07-26T23:24:30.065Z,6.43
2018-07-26T23:26:58.403Z,5.17
2018-07-26T23:29:26.842Z,4.10
2018-07-26T23:31:55.259Z,11.73
2018-07-26T23:34:23.710Z,22.40
2018-07-26T23:36:52.104Z,71.07
2018-07-26T23:39:20.572Z,31.40
2018-07-26T23:41:49.035Z,12.10
2018-07-26T23:44:17.505Z,8.30
2018-07-26T23:46:45.900Z,6.03
2018-07-26T23:49:14.292Z,6.20
2018-07-26T23:51:42.688Z,3.87
2018-07-26T23:54:11.112Z,4.20
2018-07-26T23:56:39.519Z,4.10
2018-07-26T23:59:07.895Z,3.33
